Wednesday, November 22, 2017, 4:41 PM GMT
Back to Local

CYQI, Yarmouth, N. S.

Location: , , Canada Lat: 43.833
Local Time: 4:41 PM GMT (16:41 GMT) Lon: -66.083
Time Zone: GMT Elev: 141 ft

Show me the last for .
Show Decoded

2017-11-22 16:13 METAR CYQI 221613Z 19005KT 10SM -RA SCT025 BKN052 OVC078 13/11 A2999 RMK
                 SC3SC3AC2 SLP159 =
2017-11-22 16:00 METAR CYQI 221600Z 18007KT 10SM BKN033 OVC051 13/11 A3000 RMK SC7SC1 SLP161 =
2017-11-22 15:00 METAR CYQI 221500Z 18007KT 10SM FEW036 SCT057 BKN085 13/11 A3003 RMK SC1SC2AC2
                 SLP172 =
2017-11-22 14:00 METAR CYQI 221400Z 18008KT 10SM BKN045 OVC200 12/11 A3006 RMK SC7CS1 SLP181 =
2017-11-22 13:00 METAR CYQI 221300Z 22009KT 10SM BKN045 OVC200 12/11 A3006 RMK SC6CS2 SLP182 =
2017-11-22 12:00 METAR CYQI 221200Z 23007KT 6SM BR FEW030 FEW180 OVC210 12/10 A3007 RMK SC1AC1CS8
                 SC TR AC TR SLP184 =
2017-11-22 11:00 METAR CYQI 221100Z 23012KT 15SM BKN230 12/10 A3007 RMK CI6 SLP184 =
2017-11-22 10:00 METAR CYQI 221000Z 23012G19KT 15SM SKC 11/09 A3006 RMK SLP183 =
2017-11-22 09:00 METAR CYQI 220900Z 23010G18KT 15SM SKC 11/09 A3006 RMK SLP182 =
2017-11-22 08:00 METAR CYQI 220800Z 23012G19KT 15SM SKC 11/09 A3007 RMK SLP185 =
2017-11-22 07:00 METAR CYQI 220700Z 22013G19KT 15SM FEW038 SCT250 12/09 A3008 RMK SC2CI1 SLP188 =
2017-11-22 06:00 METAR CYQI 220600Z 22011G16KT 15SM FEW250 11/09 A3009 RMK CI1 SLP191 =
2017-11-22 05:00 METAR CYQI 220500Z 22013G21KT 15SM FEW250 11/09 A3009 RMK CI1 SLP193 =
2017-11-22 04:00 METAR CYQI 220400Z 23015G21KT 15SM FEW250 11/08 A3008 RMK CI1 SLP190 =
2017-11-22 03:00 METAR CYQI 220300Z 22014G27KT 15SM SKC 11/08 A3007 RMK SLP186 =
2017-11-22 02:00 METAR CYQI 220200Z 22012G24KT 15SM SKC 11/08 A3008 RMK SLP188 =
2017-11-22 01:00 METAR CYQI 220100Z 22017G24KT 15SM SKC 11/08 A3008 RMK SLP188 =
2017-11-22 00:00 METAR CYQI 220000Z 21014G20KT 15SM SKC 11/08 A3009 RMK SLP192 =
2017-11-21 23:00 METAR CYQI 212300Z 22012G20KT 12SM SKC 10/07 A3009 RMK SLP193 =
2017-11-21 22:00 METAR CYQI 212200Z 22013KT 12SM FEW250 10/06 A3009 RMK CI1 CI TR SLP194 =
2017-11-21 21:00 METAR CYQI 212100Z 22014G20KT 12SM FEW250 10/06 A3010 RMK CI1 CI TR SLP196 =
2017-11-21 20:00 METAR CYQI 212000Z 22015G20KT 15SM FEW250 11/06 A3008 RMK CI1 SLP191 =
2017-11-21 19:00 METAR CYQI 211900Z 23017G23KT 15SM FEW035 BKN250 11/04 A3008 RMK SC1CI6 SC TR
                 SLP189 =
2017-11-21 18:00 METAR CYQI 211800Z 17011G16KT 15SM FEW035 FEW250 09/04 A3010 RMK SC1CI2 SC TR
                 SLP195 =
2017-11-21 17:00 METAR CYQI 211700Z 18010KT 15SM FEW035 FEW250 07/03 A3011 RMK SC1CI1 SC TR
                 SLP201 =

Support USWX by starting your Amazon purchase here.